sensor_id;sensor_type;location;lat;lon;timestamp;P1;durP1;ratioP1;P2;durP2;ratioP2
23718;SDS011;43322;52.230;5.702;2022-11-28T00:02:10;14.18;;;11.38;;
23718;SDS011;43322;52.230;5.702;2022-11-28T00:04:37;14.15;;;11.63;;
23718;SDS011;43322;52.230;5.702;2022-11-28T00:07:04;15.43;;;11.73;;
23718;SDS011;43322;52.230;5.702;2022-11-28T00:09:31;14.30;;;11.35;;
23718;SDS011;43322;52.230;5.702;2022-11-28T00:11:57;15.93;;;12.95;;
23718;SDS011;43322;52.230;5.702;2022-11-28T00:14:26;16.83;;;12.52;;
23718;SDS011;43322;52.230;5.702;2022-11-28T00:16:53;15.52;;;11.85;;
23718;SDS011;43322;52.230;5.702;2022-11-28T00:19:19;14.52;;;11.73;;
23718;SDS011;43322;52.230;5.702;2022-11-28T00:21:46;17.48;;;11.98;;
23718;SDS011;43322;52.230;5.702;2022-11-28T00:24:13;21.83;;;13.43;;
23718;SDS011;43322;52.230;5.702;2022-11-28T00:26:40;16.02;;;11.98;;
23718;SDS011;43322;52.230;5.702;2022-11-28T00:29:07;13.82;;;12.07;;
23718;SDS011;43322;52.230;5.702;2022-11-28T00:31:38;18.25;;;12.55;;
23718;SDS011;43322;52.230;5.702;2022-11-28T00:34:06;20.90;;;12.63;;
23718;SDS011;43322;52.230;5.702;2022-11-28T00:36:33;15.63;;;12.00;;
23718;SDS011;43322;52.230;5.702;2022-11-28T00:39:00;17.95;;;13.27;;
23718;SDS011;43322;52.230;5.702;2022-11-28T00:41:27;15.30;;;11.55;;
23718;SDS011;43322;52.230;5.702;2022-11-28T00:43:55;19.25;;;12.32;;
23718;SDS011;43322;52.230;5.702;2022-11-28T00:46:22;15.65;;;12.05;;
23718;SDS011;43322;52.230;5.702;2022-11-28T00:48:52;14.93;;;11.10;;
23718;SDS011;43322;52.230;5.702;2022-11-28T00:51:20;15.93;;;11.27;;
23718;SDS011;43322;52.230;5.702;2022-11-28T00:53:48;15.88;;;11.48;;
23718;SDS011;43322;52.230;5.702;2022-11-28T00:56:17;16.48;;;12.65;;
23718;SDS011;43322;52.230;5.702;2022-11-28T00:58:45;16.80;;;12.50;;
23718;SDS011;43322;52.230;5.702;2022-11-28T01:01:14;18.25;;;12.05;;
23718;SDS011;43322;52.230;5.702;2022-11-28T01:03:43;19.20;;;11.68;;
23718;SDS011;43322;52.230;5.702;2022-11-28T01:06:11;17.55;;;11.82;;
23718;SDS011;43322;52.230;5.702;2022-11-28T01:08:44;14.98;;;12.13;;
23718;SDS011;43322;52.230;5.702;2022-11-28T01:11:11;19.05;;;12.18;;
23718;SDS011;43322;52.230;5.702;2022-11-28T01:13:38;18.00;;;13.27;;
23718;SDS011;43322;52.230;5.702;2022-11-28T01:16:05;15.63;;;12.20;;
23718;SDS011;43322;52.230;5.702;2022-11-28T01:18:34;18.60;;;12.52;;
23718;SDS011;43322;52.230;5.702;2022-11-28T01:21:01;18.25;;;12.88;;
23718;SDS011;43322;52.230;5.702;2022-11-28T01:23:29;20.83;;;13.02;;
23718;SDS011;43322;52.230;5.702;2022-11-28T01:25:56;18.85;;;13.75;;
23718;SDS011;43322;52.230;5.702;2022-11-28T01:28:23;17.98;;;12.15;;
23718;SDS011;43322;52.230;5.702;2022-11-28T01:30:50;15.52;;;12.30;;
23718;SDS011;43322;52.230;5.702;2022-11-28T01:33:17;16.50;;;13.23;;
23718;SDS011;43322;52.230;5.702;2022-11-28T01:35:52;16.83;;;13.00;;
23718;SDS011;43322;52.230;5.702;2022-11-28T01:38:19;15.27;;;11.82;;
23718;SDS011;43322;52.230;5.702;2022-11-28T01:40:48;18.83;;;12.52;;
23718;SDS011;43322;52.230;5.702;2022-11-28T01:43:14;16.52;;;12.40;;
23718;SDS011;43322;52.230;5.702;2022-11-28T01:45:41;14.85;;;11.63;;
23718;SDS011;43322;52.230;5.702;2022-11-28T01:48:08;19.35;;;12.60;;
23718;SDS011;43322;52.230;5.702;2022-11-28T01:50:39;18.50;;;12.90;;
23718;SDS011;43322;52.230;5.702;2022-11-28T01:53:10;19.05;;;12.70;;
23718;SDS011;43322;52.230;5.702;2022-11-28T01:55:39;14.45;;;12.00;;
23718;SDS011;43322;52.230;5.702;2022-11-28T01:58:13;19.33;;;13.07;;
23718;SDS011;43322;52.230;5.702;2022-11-28T02:00:40;14.90;;;12.57;;
23718;SDS011;43322;52.230;5.702;2022-11-28T02:03:07;14.52;;;11.73;;
23718;SDS011;43322;52.230;5.702;2022-11-28T02:05:38;14.75;;;12.30;;
23718;SDS011;43322;52.230;5.702;2022-11-28T02:08:05;16.48;;;12.18;;
23718;SDS011;43322;52.230;5.702;2022-11-28T02:10:36;20.48;;;13.00;;
23718;SDS011;43322;52.230;5.702;2022-11-28T02:13:12;13.30;;;11.20;;
23718;SDS011;43322;52.230;5.702;2022-11-28T02:15:55;15.80;;;12.30;;
23718;SDS011;43322;52.230;5.702;2022-11-28T02:18:36;13.48;;;11.93;;
23718;SDS011;43322;52.230;5.702;2022-11-28T02:21:22;19.92;;;12.95;;
23718;SDS011;43322;52.230;5.702;2022-11-28T02:27:10;13.52;;;11.85;;
23718;SDS011;43322;52.230;5.702;2022-11-28T02:32:56;17.65;;;13.52;;
23718;SDS011;43322;52.230;5.702;2022-11-28T02:35:33;16.17;;;11.68;;
23718;SDS011;43322;52.230;5.702;2022-11-28T02:38:08;16.35;;;12.25;;
23718;SDS011;43322;52.230;5.702;2022-11-28T02:40:43;15.10;;;11.43;;
23718;SDS011;43322;52.230;5.702;2022-11-28T02:43:19;16.60;;;12.32;;
23718;SDS011;43322;52.230;5.702;2022-11-28T02:45:54;18.42;;;12.57;;
23718;SDS011;43322;52.230;5.702;2022-11-28T02:48:30;14.45;;;11.35;;
23718;SDS011;43322;52.230;5.702;2022-11-28T02:51:05;16.38;;;11.90;;
23718;SDS011;43322;52.230;5.702;2022-11-28T02:53:36;21.00;;;11.90;;
23718;SDS011;43322;52.230;5.702;2022-11-28T02:56:04;16.77;;;11.95;;
23718;SDS011;43322;52.230;5.702;2022-11-28T02:58:31;16.23;;;12.25;;
23718;SDS011;43322;52.230;5.702;2022-11-28T03:00:58;17.58;;;12.00;;
23718;SDS011;43322;52.230;5.702;2022-11-28T03:03:36;18.33;;;12.13;;
23718;SDS011;43322;52.230;5.702;2022-11-28T03:06:26;16.52;;;11.82;;
23718;SDS011;43322;52.230;5.702;2022-11-28T03:09:05;15.60;;;11.27;;
23718;SDS011;43322;52.230;5.702;2022-11-28T03:11:46;13.48;;;11.10;;
23718;SDS011;43322;52.230;5.702;2022-11-28T03:14:23;16.73;;;11.68;;
23718;SDS011;43322;52.230;5.702;2022-11-28T03:17:00;16.13;;;10.70;;
23718;SDS011;43322;52.230;5.702;2022-11-28T03:19:40;17.08;;;11.90;;
23718;SDS011;43322;52.230;5.702;2022-11-28T03:22:11;18.65;;;11.40;;
23718;SDS011;43322;52.230;5.702;2022-11-28T03:24:45;13.88;;;10.70;;
23718;SDS011;43322;52.230;5.702;2022-11-28T03:27:16;15.32;;;10.50;;
23718;SDS011;43322;52.230;5.702;2022-11-28T03:29:49;16.90;;;11.38;;
23718;SDS011;43322;52.230;5.702;2022-11-28T03:32:20;12.43;;;10.70;;
23718;SDS011;43322;52.230;5.702;2022-11-28T03:34:53;13.25;;;10.63;;
23718;SDS011;43322;52.230;5.702;2022-11-28T03:37:25;12.73;;;10.40;;
23718;SDS011;43322;52.230;5.702;2022-11-28T03:39:56;11.80;;;10.48;;
23718;SDS011;43322;52.230;5.702;2022-11-28T03:42:26;16.77;;;10.93;;
23718;SDS011;43322;52.230;5.702;2022-11-28T03:44:57;12.77;;;9.80;;
23718;SDS011;43322;52.230;5.702;2022-11-28T03:47:28;13.88;;;10.60;;
23718;SDS011;43322;52.230;5.702;2022-11-28T03:50:02;11.13;;;9.55;;
23718;SDS011;43322;52.230;5.702;2022-11-28T03:52:31;10.40;;;9.15;;
23718;SDS011;43322;52.230;5.702;2022-11-28T03:55:03;13.05;;;9.88;;
23718;SDS011;43322;52.230;5.702;2022-11-28T03:57:35;11.82;;;9.30;;
23718;SDS011;43322;52.230;5.702;2022-11-28T04:00:09;10.40;;;9.40;;
23718;SDS011;43322;52.230;5.702;2022-11-28T04:02:39;11.60;;;9.23;;
23718;SDS011;43322;52.230;5.702;2022-11-28T04:05:16;12.60;;;9.48;;
23718;SDS011;43322;52.230;5.702;2022-11-28T04:07:49;12.10;;;10.48;;
23718;SDS011;43322;52.230;5.702;2022-11-28T04:10:25;11.98;;;10.10;;
23718;SDS011;43322;52.230;5.702;2022-11-28T04:12:56;13.48;;;10.63;;
23718;SDS011;43322;52.230;5.702;2022-11-28T04:15:29;12.90;;;9.88;;
23718;SDS011;43322;52.230;5.702;2022-11-28T04:18:01;13.38;;;10.43;;
23718;SDS011;43322;52.230;5.702;2022-11-28T04:20:39;11.75;;;9.65;;
23718;SDS011;43322;52.230;5.702;2022-11-28T04:23:09;12.32;;;10.32;;
23718;SDS011;43322;52.230;5.702;2022-11-28T04:25:41;17.40;;;11.13;;
23718;SDS011;43322;52.230;5.702;2022-11-28T04:28:13;11.07;;;9.68;;
23718;SDS011;43322;52.230;5.702;2022-11-28T04:30:44;13.45;;;10.60;;
23718;SDS011;43322;52.230;5.702;2022-11-28T04:33:14;12.45;;;10.07;;
23718;SDS011;43322;52.230;5.702;2022-11-28T04:35:46;11.50;;;9.65;;
23718;SDS011;43322;52.230;5.702;2022-11-28T04:38:17;12.27;;;10.02;;
23718;SDS011;43322;52.230;5.702;2022-11-28T04:40:48;11.57;;;10.07;;
23718;SDS011;43322;52.230;5.702;2022-11-28T04:43:20;17.30;;;9.60;;
23718;SDS011;43322;52.230;5.702;2022-11-28T04:45:56;11.20;;;10.10;;
23718;SDS011;43322;52.230;5.702;2022-11-28T04:48:27;11.02;;;9.93;;
23718;SDS011;43322;52.230;5.702;2022-11-28T04:50:58;13.98;;;10.52;;
23718;SDS011;43322;52.230;5.702;2022-11-28T04:53:32;11.88;;;9.85;;
23718;SDS011;43322;52.230;5.702;2022-11-28T04:56:10;13.80;;;10.30;;
23718;SDS011;43322;52.230;5.702;2022-11-28T04:58:43;11.32;;;9.98;;
23718;SDS011;43322;52.230;5.702;2022-11-28T05:01:13;13.73;;;10.38;;
23718;SDS011;43322;52.230;5.702;2022-11-28T05:03:44;17.00;;;10.85;;
23718;SDS011;43322;52.230;5.702;2022-11-28T05:06:20;11.07;;;9.93;;
23718;SDS011;43322;52.230;5.702;2022-11-28T05:08:49;14.52;;;9.90;;
23718;SDS011;43322;52.230;5.702;2022-11-28T05:11:16;10.63;;;9.27;;
23718;SDS011;43322;52.230;5.702;2022-11-28T05:13:43;11.27;;;10.10;;
23718;SDS011;43322;52.230;5.702;2022-11-28T05:16:10;11.52;;;10.40;;
23718;SDS011;43322;52.230;5.702;2022-11-28T05:18:38;12.18;;;10.88;;
23718;SDS011;43322;52.230;5.702;2022-11-28T05:21:05;15.30;;;11.32;;
23718;SDS011;43322;52.230;5.702;2022-11-28T05:23:34;10.27;;;9.23;;
23718;SDS011;43322;52.230;5.702;2022-11-28T05:26:03;11.00;;;9.80;;
23718;SDS011;43322;52.230;5.702;2022-11-28T05:28:31;11.88;;;9.68;;
23718;SDS011;43322;52.230;5.702;2022-11-28T05:30:58;12.35;;;10.00;;
23718;SDS011;43322;52.230;5.702;2022-11-28T05:33:26;10.35;;;9.35;;
23718;SDS011;43322;52.230;5.702;2022-11-28T05:35:54;13.68;;;9.93;;
23718;SDS011;43322;52.230;5.702;2022-11-28T05:38:21;10.40;;;9.23;;
23718;SDS011;43322;52.230;5.702;2022-11-28T05:40:49;10.55;;;9.55;;
23718;SDS011;43322;52.230;5.702;2022-11-28T05:43:16;11.90;;;9.50;;
23718;SDS011;43322;52.230;5.702;2022-11-28T05:45:43;10.88;;;9.35;;
23718;SDS011;43322;52.230;5.702;2022-11-28T05:48:10;10.30;;;9.15;;
23718;SDS011;43322;52.230;5.702;2022-11-28T05:50:37;10.38;;;9.35;;
23718;SDS011;43322;52.230;5.702;2022-11-28T05:53:04;9.73;;;8.82;;
23718;SDS011;43322;52.230;5.702;2022-11-28T05:55:31;9.68;;;8.77;;
23718;SDS011;43322;52.230;5.702;2022-11-28T05:57:59;12.27;;;9.07;;
23718;SDS011;43322;52.230;5.702;2022-11-28T06:00:26;10.48;;;9.05;;
23718;SDS011;43322;52.230;5.702;2022-11-28T06:02:52;11.13;;;9.30;;
23718;SDS011;43322;52.230;5.702;2022-11-28T06:05:19;12.18;;;8.88;;
23718;SDS011;43322;52.230;5.702;2022-11-28T06:07:46;9.35;;;8.40;;
23718;SDS011;43322;52.230;5.702;2022-11-28T06:10:13;9.10;;;8.20;;
23718;SDS011;43322;52.230;5.702;2022-11-28T06:12:39;8.95;;;8.13;;
23718;SDS011;43322;52.230;5.702;2022-11-28T06:15:08;8.85;;;8.15;;
23718;SDS011;43322;52.230;5.702;2022-11-28T06:17:35;9.15;;;8.23;;
23718;SDS011;43322;52.230;5.702;2022-11-28T06:20:04;8.48;;;7.80;;
23718;SDS011;43322;52.230;5.702;2022-11-28T06:22:32;8.77;;;7.85;;
23718;SDS011;43322;52.230;5.702;2022-11-28T06:24:59;9.32;;;8.43;;
23718;SDS011;43322;52.230;5.702;2022-11-28T06:27:26;9.48;;;8.55;;
23718;SDS011;43322;52.230;5.702;2022-11-28T06:29:53;8.52;;;7.72;;
23718;SDS011;43322;52.230;5.702;2022-11-28T06:32:21;8.73;;;7.93;;
23718;SDS011;43322;52.230;5.702;2022-11-28T06:34:48;8.32;;;7.65;;
23718;SDS011;43322;52.230;5.702;2022-11-28T06:37:14;9.20;;;8.35;;
23718;SDS011;43322;52.230;5.702;2022-11-28T06:39:41;9.43;;;8.63;;
23718;SDS011;43322;52.230;5.702;2022-11-28T06:42:08;9.30;;;8.52;;
23718;SDS011;43322;52.230;5.702;2022-11-28T06:44:35;9.23;;;8.48;;
23718;SDS011;43322;52.230;5.702;2022-11-28T06:47:02;9.05;;;8.30;;
23718;SDS011;43322;52.230;5.702;2022-11-28T06:49:30;9.30;;;8.50;;
23718;SDS011;43322;52.230;5.702;2022-11-28T06:51:57;9.05;;;8.27;;
23718;SDS011;43322;52.230;5.702;2022-11-28T06:54:23;11.77;;;9.63;;
23718;SDS011;43322;52.230;5.702;2022-11-28T06:56:50;9.93;;;8.93;;
23718;SDS011;43322;52.230;5.702;2022-11-28T06:59:17;10.02;;;9.05;;
23718;SDS011;43322;52.230;5.702;2022-11-28T07:01:44;11.13;;;9.40;;
23718;SDS011;43322;52.230;5.702;2022-11-28T07:04:11;11.40;;;9.85;;
23718;SDS011;43322;52.230;5.702;2022-11-28T07:06:39;9.52;;;8.63;;
23718;SDS011;43322;52.230;5.702;2022-11-28T07:09:07;10.38;;;9.43;;
23718;SDS011;43322;52.230;5.702;2022-11-28T07:11:34;11.25;;;10.07;;
23718;SDS011;43322;52.230;5.702;2022-11-28T07:14:01;9.77;;;8.95;;
23718;SDS011;43322;52.230;5.702;2022-11-28T07:16:29;10.77;;;9.77;;
23718;SDS011;43322;52.230;5.702;2022-11-28T07:18:58;10.98;;;9.93;;
23718;SDS011;43322;52.230;5.702;2022-11-28T07:21:25;10.95;;;9.95;;
23718;SDS011;43322;52.230;5.702;2022-11-28T07:23:54;11.95;;;10.00;;
23718;SDS011;43322;52.230;5.702;2022-11-28T07:26:21;12.20;;;10.80;;
23718;SDS011;43322;52.230;5.702;2022-11-28T07:28:48;13.20;;;9.75;;
23718;SDS011;43322;52.230;5.702;2022-11-28T07:31:16;11.35;;;10.25;;
23718;SDS011;43322;52.230;5.702;2022-11-28T07:33:45;12.80;;;10.38;;
23718;SDS011;43322;52.230;5.702;2022-11-28T07:36:13;14.70;;;10.68;;
23718;SDS011;43322;52.230;5.702;2022-11-28T07:38:44;11.85;;;10.65;;
23718;SDS011;43322;52.230;5.702;2022-11-28T07:41:13;12.32;;;11.05;;
23718;SDS011;43322;52.230;5.702;2022-11-28T07:43:41;13.13;;;11.82;;
23718;SDS011;43322;52.230;5.702;2022-11-28T07:46:09;12.70;;;11.23;;
23718;SDS011;43322;52.230;5.702;2022-11-28T07:48:38;12.80;;;11.50;;
23718;SDS011;43322;52.230;5.702;2022-11-28T07:51:05;12.75;;;11.32;;
23718;SDS011;43322;52.230;5.702;2022-11-28T07:53:34;16.55;;;12.05;;
23718;SDS011;43322;52.230;5.702;2022-11-28T07:56:01;12.65;;;11.35;;
23718;SDS011;43322;52.230;5.702;2022-11-28T07:58:30;15.90;;;13.02;;
23718;SDS011;43322;52.230;5.702;2022-11-28T08:00:57;13.25;;;11.70;;
23718;SDS011;43322;52.230;5.702;2022-11-28T08:03:24;16.95;;;13.15;;
23718;SDS011;43322;52.230;5.702;2022-11-28T08:05:51;17.58;;;13.85;;
23718;SDS011;43322;52.230;5.702;2022-11-28T08:08:18;14.00;;;12.40;;
23718;SDS011;43322;52.230;5.702;2022-11-28T08:10:44;14.23;;;12.43;;
23718;SDS011;43322;52.230;5.702;2022-11-28T08:13:12;19.38;;;14.18;;
23718;SDS011;43322;52.230;5.702;2022-11-28T08:15:40;15.23;;;13.32;;
23718;SDS011;43322;52.230;5.702;2022-11-28T08:18:07;18.55;;;14.25;;
23718;SDS011;43322;52.230;5.702;2022-11-28T08:20:34;17.95;;;13.13;;
23718;SDS011;43322;52.230;5.702;2022-11-28T08:23:00;16.25;;;14.10;;
23718;SDS011;43322;52.230;5.702;2022-11-28T08:25:27;20.90;;;14.50;;
23718;SDS011;43322;52.230;5.702;2022-11-28T08:27:54;16.92;;;13.98;;
23718;SDS011;43322;52.230;5.702;2022-11-28T08:30:21;16.20;;;12.65;;
23718;SDS011;43322;52.230;5.702;2022-11-28T08:32:49;17.10;;;12.73;;
23718;SDS011;43322;52.230;5.702;2022-11-28T08:35:16;16.83;;;13.05;;
23718;SDS011;43322;52.230;5.702;2022-11-28T08:37:43;14.68;;;12.68;;
23718;SDS011;43322;52.230;5.702;2022-11-28T08:40:10;15.98;;;12.70;;
23718;SDS011;43322;52.230;5.702;2022-11-28T08:42:37;15.45;;;12.15;;
23718;SDS011;43322;52.230;5.702;2022-11-28T08:45:05;12.75;;;11.32;;
23718;SDS011;43322;52.230;5.702;2022-11-28T08:47:32;14.55;;;11.55;;
23718;SDS011;43322;52.230;5.702;2022-11-28T08:50:00;17.13;;;11.65;;
23718;SDS011;43322;52.230;5.702;2022-11-28T08:52:27;13.75;;;12.02;;
23718;SDS011;43322;52.230;5.702;2022-11-28T08:54:54;14.07;;;12.38;;
23718;SDS011;43322;52.230;5.702;2022-11-28T08:57:20;12.05;;;10.57;;
23718;SDS011;43322;52.230;5.702;2022-11-28T08:59:47;17.20;;;12.38;;
23718;SDS011;43322;52.230;5.702;2022-11-28T09:02:14;12.63;;;11.32;;
23718;SDS011;43322;52.230;5.702;2022-11-28T09:04:41;12.60;;;11.30;;
23718;SDS011;43322;52.230;5.702;2022-11-28T09:07:09;13.35;;;11.93;;
23718;SDS011;43322;52.230;5.702;2022-11-28T09:09:36;13.98;;;11.23;;
23718;SDS011;43322;52.230;5.702;2022-11-28T09:12:02;13.93;;;11.60;;
23718;SDS011;43322;52.230;5.702;2022-11-28T09:14:29;15.70;;;12.38;;
23718;SDS011;43322;52.230;5.702;2022-11-28T09:16:56;13.57;;;11.57;;
23718;SDS011;43322;52.230;5.702;2022-11-28T09:19:23;12.25;;;10.98;;
23718;SDS011;43322;52.230;5.702;2022-11-28T09:21:50;15.35;;;12.02;;
23718;SDS011;43322;52.230;5.702;2022-11-28T09:24:18;14.73;;;11.25;;
23718;SDS011;43322;52.230;5.702;2022-11-28T09:26:45;14.35;;;11.50;;
23718;SDS011;43322;52.230;5.702;2022-11-28T09:29:11;14.23;;;11.95;;
23718;SDS011;43322;52.230;5.702;2022-11-28T09:31:38;15.23;;;11.35;;
23718;SDS011;43322;52.230;5.702;2022-11-28T09:34:05;13.15;;;10.95;;
23718;SDS011;43322;52.230;5.702;2022-11-28T09:36:34;14.02;;;12.15;;
23718;SDS011;43322;52.230;5.702;2022-11-28T09:39:01;13.20;;;11.60;;
23718;SDS011;43322;52.230;5.702;2022-11-28T09:41:41;12.77;;;11.30;;
23718;SDS011;43322;52.230;5.702;2022-11-28T09:44:17;12.00;;;10.63;;
23718;SDS011;43322;52.230;5.702;2022-11-28T09:46:48;13.40;;;11.35;;
23718;SDS011;43322;52.230;5.702;2022-11-28T09:49:20;13.35;;;11.80;;
23718;SDS011;43322;52.230;5.702;2022-11-28T09:51:56;11.52;;;10.43;;
23718;SDS011;43322;52.230;5.702;2022-11-28T09:54:28;16.38;;;11.38;;
23718;SDS011;43322;52.230;5.702;2022-11-28T09:57:09;14.18;;;11.98;;
23718;SDS011;43322;52.230;5.702;2022-11-28T09:59:42;15.73;;;13.30;;
23718;SDS011;43322;52.230;5.702;2022-11-28T10:02:14;13.38;;;11.93;;
23718;SDS011;43322;52.230;5.702;2022-11-28T10:04:48;12.60;;;11.00;;
23718;SDS011;43322;52.230;5.702;2022-11-28T10:07:26;14.27;;;11.82;;
23718;SDS011;43322;52.230;5.702;2022-11-28T10:10:02;16.23;;;12.38;;
23718;SDS011;43322;52.230;5.702;2022-11-28T10:12:42;12.75;;;11.38;;
23718;SDS011;43322;52.230;5.702;2022-11-28T10:15:19;15.40;;;11.57;;
23718;SDS011;43322;52.230;5.702;2022-11-28T10:17:54;12.82;;;10.95;;
23718;SDS011;43322;52.230;5.702;2022-11-28T10:20:30;16.92;;;12.13;;
23718;SDS011;43322;52.230;5.702;2022-11-28T10:22:59;17.65;;;13.10;;
23718;SDS011;43322;52.230;5.702;2022-11-28T10:25:30;14.23;;;11.68;;
23718;SDS011;43322;52.230;5.702;2022-11-28T10:28:04;17.92;;;12.90;;
23718;SDS011;43322;52.230;5.702;2022-11-28T10:30:36;17.55;;;13.13;;
23718;SDS011;43322;52.230;5.702;2022-11-28T10:33:08;20.05;;;12.38;;
23718;SDS011;43322;52.230;5.702;2022-11-28T10:35:45;17.23;;;12.77;;
23718;SDS011;43322;52.230;5.702;2022-11-28T10:38:16;17.52;;;12.65;;
23718;SDS011;43322;52.230;5.702;2022-11-28T10:40:45;18.05;;;13.23;;
23718;SDS011;43322;52.230;5.702;2022-11-28T10:43:23;18.52;;;12.93;;
23718;SDS011;43322;52.230;5.702;2022-11-28T10:45:56;16.42;;;12.52;;
23718;SDS011;43322;52.230;5.702;2022-11-28T10:48:35;19.60;;;14.13;;
23718;SDS011;43322;52.230;5.702;2022-11-28T10:51:15;20.80;;;14.25;;
23718;SDS011;43322;52.230;5.702;2022-11-28T10:53:56;20.02;;;13.80;;
23718;SDS011;43322;52.230;5.702;2022-11-28T10:56:36;22.20;;;14.45;;
23718;SDS011;43322;52.230;5.702;2022-11-28T10:59:17;18.95;;;13.85;;
23718;SDS011;43322;52.230;5.702;2022-11-28T11:01:49;23.40;;;15.43;;
23718;SDS011;43322;52.230;5.702;2022-11-28T11:04:19;23.90;;;14.27;;
23718;SDS011;43322;52.230;5.702;2022-11-28T11:06:52;38.28;;;16.52;;
23718;SDS011;43322;52.230;5.702;2022-11-28T11:09:27;23.05;;;14.55;;
23718;SDS011;43322;52.230;5.702;2022-11-28T11:11:54;26.77;;;16.05;;
23718;SDS011;43322;52.230;5.702;2022-11-28T11:14:33;30.77;;;16.83;;
23718;SDS011;43322;52.230;5.702;2022-11-28T11:17:04;31.70;;;17.90;;
23718;SDS011;43322;52.230;5.702;2022-11-28T11:19:32;41.70;;;18.15;;
23718;SDS011;43322;52.230;5.702;2022-11-28T11:22:02;34.30;;;18.67;;
23718;SDS011;43322;52.230;5.702;2022-11-28T11:24:31;33.13;;;17.38;;
23718;SDS011;43322;52.230;5.702;2022-11-28T11:27:02;35.28;;;18.42;;
23718;SDS011;43322;52.230;5.702;2022-11-28T11:29:33;35.33;;;18.15;;
23718;SDS011;43322;52.230;5.702;2022-11-28T11:32:04;37.25;;;18.77;;
23718;SDS011;43322;52.230;5.702;2022-11-28T11:34:36;38.75;;;19.80;;
23718;SDS011;43322;52.230;5.702;2022-11-28T11:37:16;39.40;;;19.90;;
23718;SDS011;43322;52.230;5.702;2022-11-28T11:39:46;34.90;;;18.58;;
23718;SDS011;43322;52.230;5.702;2022-11-28T11:42:18;35.33;;;18.95;;
23718;SDS011;43322;52.230;5.702;2022-11-28T11:44:49;41.67;;;19.98;;
23718;SDS011;43322;52.230;5.702;2022-11-28T11:47:16;38.83;;;20.20;;
23718;SDS011;43322;52.230;5.702;2022-11-28T11:49:44;41.63;;;21.15;;
23718;SDS011;43322;52.230;5.702;2022-11-28T11:52:14;40.70;;;20.33;;
23718;SDS011;43322;52.230;5.702;2022-11-28T11:54:53;40.72;;;20.52;;
23718;SDS011;43322;52.230;5.702;2022-11-28T11:57:24;39.42;;;20.20;;
23718;SDS011;43322;52.230;5.702;2022-11-28T11:59:54;39.10;;;19.63;;
23718;SDS011;43322;52.230;5.702;2022-11-28T12:02:25;40.42;;;19.80;;
23718;SDS011;43322;52.230;5.702;2022-11-28T12:04:58;38.20;;;20.02;;
23718;SDS011;43322;52.230;5.702;2022-11-28T12:07:29;40.88;;;20.33;;
23718;SDS011;43322;52.230;5.702;2022-11-28T12:10:02;37.90;;;19.67;;
23718;SDS011;43322;52.230;5.702;2022-11-28T12:12:33;48.80;;;21.48;;
23718;SDS011;43322;52.230;5.702;2022-11-28T12:15:07;51.17;;;22.33;;
23718;SDS011;43322;52.230;5.702;2022-11-28T12:17:42;43.85;;;20.98;;
23718;SDS011;43322;52.230;5.702;2022-11-28T12:20:21;40.10;;;22.27;;
23718;SDS011;43322;52.230;5.702;2022-11-28T12:22:56;53.00;;;21.80;;
23718;SDS011;43322;52.230;5.702;2022-11-28T12:25:30;46.30;;;22.25;;
23718;SDS011;43322;52.230;5.702;2022-11-28T12:28:00;40.47;;;20.98;;
23718;SDS011;43322;52.230;5.702;2022-11-28T12:30:42;39.20;;;21.25;;
23718;SDS011;43322;52.230;5.702;2022-11-28T12:33:24;36.95;;;19.55;;
23718;SDS011;43322;52.230;5.702;2022-11-28T12:36:04;41.25;;;21.58;;
23718;SDS011;43322;52.230;5.702;2022-11-28T12:38:56;43.35;;;21.50;;
23718;SDS011;43322;52.230;5.702;2022-11-28T12:41:39;43.17;;;22.45;;
23718;SDS011;43322;52.230;5.702;2022-11-28T12:44:18;45.65;;;22.92;;
23718;SDS011;43322;52.230;5.702;2022-11-28T12:46:59;46.65;;;22.65;;
23718;SDS011;43322;52.230;5.702;2022-11-28T12:49:33;39.22;;;22.08;;
23718;SDS011;43322;52.230;5.702;2022-11-28T12:52:13;43.67;;;22.08;;
23718;SDS011;43322;52.230;5.702;2022-11-28T12:54:56;45.63;;;23.70;;
23718;SDS011;43322;52.230;5.702;2022-11-28T12:57:29;39.88;;;21.45;;
23718;SDS011;43322;52.230;5.702;2022-11-28T13:00:04;43.92;;;23.73;;
23718;SDS011;43322;52.230;5.702;2022-11-28T13:02:41;61.80;;;24.25;;
23718;SDS011;43322;52.230;5.702;2022-11-28T13:05:25;46.58;;;23.13;;
23718;SDS011;43322;52.230;5.702;2022-11-28T13:11:11;40.75;;;22.15;;
23718;SDS011;43322;52.230;5.702;2022-11-28T13:13:45;65.35;;;26.55;;
23718;SDS011;43322;52.230;5.702;2022-11-28T13:16:18;49.22;;;24.58;;
23718;SDS011;43322;52.230;5.702;2022-11-28T13:18:52;44.03;;;23.30;;
23718;SDS011;43322;52.230;5.702;2022-11-28T13:21:24;47.25;;;24.38;;
23718;SDS011;43322;52.230;5.702;2022-11-28T13:23:59;46.85;;;22.92;;
23718;SDS011;43322;52.230;5.702;2022-11-28T13:26:36;51.20;;;24.77;;
23718;SDS011;43322;52.230;5.702;2022-11-28T13:29:13;63.50;;;24.90;;
23718;SDS011;43322;52.230;5.702;2022-11-28T13:31:46;49.13;;;22.83;;
23718;SDS011;43322;52.230;5.702;2022-11-28T13:34:19;53.55;;;24.88;;
23718;SDS011;43322;52.230;5.702;2022-11-28T13:36:47;50.85;;;24.40;;
23718;SDS011;43322;52.230;5.702;2022-11-28T13:39:19;54.58;;;24.38;;
23718;SDS011;43322;52.230;5.702;2022-11-28T13:41:55;54.95;;;24.55;;
23718;SDS011;43322;52.230;5.702;2022-11-28T13:44:32;51.85;;;24.48;;
23718;SDS011;43322;52.230;5.702;2022-11-28T13:47:14;49.03;;;24.33;;
23718;SDS011;43322;52.230;5.702;2022-11-28T13:52:57;61.42;;;26.27;;
23718;SDS011;43322;52.230;5.702;2022-11-28T13:58:17;46.33;;;23.17;;
23718;SDS011;43322;52.230;5.702;2022-11-28T14:00:57;43.60;;;22.23;;
23718;SDS011;43322;52.230;5.702;2022-11-28T14:03:28;69.32;;;25.67;;
23718;SDS011;43322;52.230;5.702;2022-11-28T14:05:58;47.08;;;23.42;;
23718;SDS011;43322;52.230;5.702;2022-11-28T14:08:30;73.50;;;28.35;;
23718;SDS011;43322;52.230;5.702;2022-11-28T14:11:09;55.55;;;25.27;;
23718;SDS011;43322;52.230;5.702;2022-11-28T14:14:02;60.22;;;25.35;;
23718;SDS011;43322;52.230;5.702;2022-11-28T14:16:47;57.35;;;25.33;;
23718;SDS011;43322;52.230;5.702;2022-11-28T14:19:26;66.28;;;27.70;;
23718;SDS011;43322;52.230;5.702;2022-11-28T14:22:12;51.00;;;25.88;;
23718;SDS011;43322;52.230;5.702;2022-11-28T14:24:52;56.88;;;25.05;;
23718;SDS011;43322;52.230;5.702;2022-11-28T14:27:22;51.80;;;25.77;;
23718;SDS011;43322;52.230;5.702;2022-11-28T14:29:52;64.18;;;27.17;;
23718;SDS011;43322;52.230;5.702;2022-11-28T14:32:25;63.00;;;27.30;;
23718;SDS011;43322;52.230;5.702;2022-11-28T14:34:57;60.00;;;26.98;;
23718;SDS011;43322;52.230;5.702;2022-11-28T14:43:29;65.07;;;26.52;;
23718;SDS011;43322;52.230;5.702;2022-11-28T14:46:17;63.47;;;27.35;;
23718;SDS011;43322;52.230;5.702;2022-11-28T14:54:44;60.13;;;26.55;;
23718;SDS011;43322;52.230;5.702;2022-11-28T14:57:14;59.50;;;25.90;;
23718;SDS011;43322;52.230;5.702;2022-11-28T14:59:44;74.47;;;32.60;;
23718;SDS011;43322;52.230;5.702;2022-11-28T15:08:21;70.38;;;30.80;;
23718;SDS011;43322;52.230;5.702;2022-11-28T15:11:14;70.63;;;27.95;;
23718;SDS011;43322;52.230;5.702;2022-11-28T15:13:59;66.20;;;27.90;;
23718;SDS011;43322;52.230;5.702;2022-11-28T15:16:35;70.60;;;28.58;;
23718;SDS011;43322;52.230;5.702;2022-11-28T15:19:06;69.88;;;26.85;;
23718;SDS011;43322;52.230;5.702;2022-11-28T15:21:43;68.40;;;28.08;;
23718;SDS011;43322;52.230;5.702;2022-11-28T15:24:15;65.13;;;27.10;;